This is the latest recevied weather packets stored in our database for station/object FW4141. If no packets are shown the sender has not sent any weather packets the latest 10 day(s).
| Time | Temp. | Humidity | Pressure | Rain* | Wind** | Luminosity | Snow |
|---|---|---|---|---|---|---|---|
| 1778047940 | 12.78° C | 80% | 997.7 hPa | 0 mm | - | - | - |
| 1778046661 | 12.22° C | 84% | 997.7 hPa | 0 mm | - | - | - |
| 1778043039 | 11.67° C | 88% | 997.7 hPa | 0 mm | - | - | - |
| 1778042435 | 11.67° C | 88% | 997.7 hPa | 0 mm | - | - | - |
| 1778040021 | 11.11° C | 88% | 997.3 hPa | 0 mm | - | - | - |
| 1778039439 | 11.11° C | 87% | 996.8 hPa | 0 mm | - | - | - |
| 1778037668 | 11.11° C | 87% | 997.8 hPa | 0 mm | - | - | - |
| 1778034046 | 11.67° C | 87% | 998.7 hPa | 0 mm | - | - | - |
| 1778032235 | 11.67° C | 88% | 998.9 hPa | 0 mm | - | - | - |
| 1778031028 | 11.67° C | 88% | 999.1 hPa | 0 mm | - | - | - |
| 1778029820 | 11.67° C | 88% | 998.5 hPa | 0 mm | - | - | - |
| 1778028694 | 11.67° C | 87% | 998.6 hPa | 0 mm | - | - | - |
| 1778028071 | 11.67° C | 87% | 998.5 hPa | 0 mm | - | - | - |
| 1778025656 | 12.22° C | 85% | 999 hPa | 0 mm | - | - | - |
| 1778025053 | 12.22° C | 85% | 999.2 hPa | 0 mm | - | - | - |
| 1778022638 | 12.78° C | 81% | 999.6 hPa | 0 mm | - | - | - |
| 1778021433 | 12.78° C | 81% | 999.7 hPa | 0 mm | - | - | - |
| 1778017266 | 13.33° C | 78% | 1000.1 hPa | 0 mm | - | - | - |
| 1778016662 | 13.33° C | 77% | 1000.3 hPa | 0 mm | - | - | - |
| 1778016058 | 13.33° C | 76% | 1000.5 hPa | 0 mm | - | - | - |
| 1778014893 | 13.89° C | 76% | 1000.7 hPa | 0 mm | - | - | - |
| 1778010024 | 15° C | 72% | 1000.6 hPa | 0 mm | - | - | - |
| 1778009426 | 15.56° C | 72% | 1000.4 hPa | 0 mm | - | - | - |
| 1778007692 | 15.56° C | 71% | 1001 hPa | 0 mm | - | - | - |
| 1778005860 | 16.11° C | 70% | 1000.8 hPa | 0 mm | - | - | - |
* Rain latest hour (hover to see other rain measurements)
** Current wind speed in m/s (hover to see current wind gust speed)